Time;durP1;ratioP1;P1;durP2;ratioP2;P2;SDS_P1;SDS_P2;PMS_P1;PMS_P2;Temp;Humidity;BMP_temperature;BMP_pressure;BME280_temperature;BME280_humidity;BME280_pressure;Samples;Min_cycle;Max_cycle;Signal;HPM_P1;HPM_P2
2022/09/14 00:04:58;;;;;;;12.00;8.10;;;;;16.90;100240.00;;;;13132034;22;20223;-73
2022/09/14 00:09:59;;;;;;;11.68;7.13;;;;;16.90;100228.00;;;;13152169;22;20173;-74
2022/09/14 00:15:00;;;;;;;12.52;7.82;;;;;16.80;100222.00;;;;13106682;22;20191;-73
2022/09/14 00:20:02;;;;;;;11.50;6.93;;;;;16.70;100214.00;;;;13081172;22;20254;-74
2022/09/14 00:25:04;;;;;;;12.95;6.55;;;;;16.60;100214.00;;;;13155167;22;20212;-74
2022/09/14 00:30:06;;;;;;;14.82;6.03;;;;;16.60;100208.00;;;;13103364;22;20170;-74
2022/09/14 00:35:07;;;;;;;12.25;6.13;;;;;16.60;100202.00;;;;13081070;22;20697;-73
2022/09/14 00:40:11;;;;;;;7.95;5.60;;;;;16.60;100202.00;;;;13183355;22;20188;-74
2022/09/14 00:45:17;;;;;;;9.70;5.40;;;;;16.50;100200.00;;;;13105045;22;20201;-73
2022/09/14 00:50:19;;;;;;;12.75;4.93;;;;;16.50;100194.00;;;;13106491;22;20171;-74
2022/09/14 00:55:22;;;;;;;12.07;5.18;;;;;16.50;100194.00;;;;13128115;22;20159;-73
2022/09/14 01:00:26;;;;;;;7.07;4.50;;;;;16.40;100185.00;;;;13153414;22;20634;-73
2022/09/14 01:05:56;;;;;;;7.85;4.53;;;;;16.40;100184.00;;;;13080077;22;20636;-74
2022/09/14 01:11:28;;;;;;;7.05;4.28;;;;;16.40;100188.00;;;;13080638;22;20543;-74
2022/09/14 01:16:49;;;;;;;7.93;5.15;;;;;16.30;100190.00;;;;13128051;22;20185;-74
2022/09/14 01:21:54;;;;;;;12.52;5.70;;;;;16.30;100195.00;;;;13079567;22;20174;-74
2022/09/14 01:27:28;;;;;;;10.15;5.32;;;;;16.30;100187.00;;;;13154950;22;20175;-74
2022/09/14 01:33:01;;;;;;;8.18;5.97;;;;;16.30;100189.00;;;;12998204;22;20181;-74
2022/09/14 01:38:07;;;;;;;10.82;5.80;;;;;16.30;100174.00;;;;13079587;22;20244;-74
2022/09/14 01:43:15;;;;;;;9.25;6.03;;;;;16.20;100164.00;;;;13105548;22;20167;-74
2022/09/14 01:48:20;;;;;;;11.63;5.97;;;;;16.20;100161.00;;;;13131874;22;20275;-74
2022/09/14 01:54:02;;;;;;;12.20;6.25;;;;;16.10;100170.00;;;;13080635;22;20308;-74
2022/09/14 01:59:15;;;;;;;15.00;6.55;;;;;16.10;100172.00;;;;13127608;22;20189;-74
2022/09/14 02:04:25;;;;;;;11.77;5.90;;;;;16.00;100160.00;;;;13105877;22;20182;-74
2022/09/14 02:09:27;;;;;;;13.90;6.25;;;;;16.00;100159.00;;;;13154107;22;20258;-74
2022/09/14 02:14:29;;;;;;;9.00;5.75;;;;;16.00;100157.00;;;;13105392;22;20187;-74
2022/09/14 02:19:36;;;;;;;13.38;5.85;;;;;16.00;100157.00;;;;13104995;22;20201;-74
2022/09/14 02:24:37;;;;;;;13.45;5.60;;;;;16.00;100154.00;;;;13129113;22;20166;-74
2022/09/14 02:29:38;;;;;;;9.50;5.45;;;;;16.00;100148.00;;;;13078554;22;20174;-74
2022/09/14 02:35:04;;;;;;;13.40;5.22;;;;;15.90;100151.00;;;;13126685;22;20165;-74
2022/09/14 02:40:08;;;;;;;10.55;5.95;;;;;15.90;100148.00;;;;13078293;22;20194;-74
2022/09/14 02:45:15;;;;;;;8.95;6.35;;;;;15.90;100136.00;;;;13152810;22;20193;-73
2022/09/14 02:50:35;;;;;;;10.00;6.85;;;;;15.90;100135.00;;;;13154135;22;20163;-73
2022/09/14 02:55:42;;;;;;;8.47;6.63;;;;;15.80;100121.00;;;;13155083;22;20212;-73
2022/09/14 03:00:47;;;;;;;11.13;6.60;;;;;15.80;100121.00;;;;13128553;22;20688;-73
2022/09/14 03:05:49;;;;;;;13.15;7.45;;;;;15.70;100105.00;;;;13081513;22;20393;-74
2022/09/14 03:10:50;;;;;;;15.07;8.27;;;;;15.70;100100.00;;;;13105944;22;20174;-74
2022/09/14 03:15:52;;;;;;;15.83;8.63;;;;;15.70;100109.00;;;;13056068;22;20281;-73
2022/09/14 03:20:53;;;;;;;14.87;9.40;;;;;15.60;100115.00;;;;13081115;22;20194;-73
2022/09/14 03:25:54;;;;;;;15.73;10.00;;;;;15.60;100105.00;;;;13154518;22;20205;-74
2022/09/14 03:31:00;;;;;;;17.55;10.35;;;;;15.60;100098.00;;;;13154746;22;20171;-73
2022/09/14 03:36:16;;;;;;;17.60;11.00;;;;;15.60;100093.00;;;;13103457;22;20194;-73
2022/09/14 03:41:18;;;;;;;16.40;10.80;;;;;15.60;100093.00;;;;13152391;22;20664;-73
2022/09/14 03:46:21;;;;;;;16.05;10.95;;;;;15.60;100091.00;;;;13132236;22;20299;-73
2022/09/14 03:51:23;;;;;;;18.57;10.80;;;;;15.60;100098.00;;;;13154785;22;20186;-73
2022/09/14 03:56:24;;;;;;;16.83;10.50;;;;;15.60;100099.00;;;;13105746;22;20198;-73
2022/09/14 04:01:25;;;;;;;17.73;10.50;;;;;15.60;100103.00;;;;13154752;22;20259;-74
2022/09/14 04:06:27;;;;;;;16.67;10.60;;;;;15.60;100105.00;;;;13128337;22;20530;-74
2022/09/14 04:11:30;;;;;;;17.67;10.50;;;;;15.60;100107.00;;;;13104320;22;20171;-74
2022/09/14 04:16:31;;;;;;;13.85;9.43;;;;;15.60;100100.00;;;;13101586;22;20190;-74
2022/09/14 04:21:33;;;;;;;20.52;10.38;;;;;15.50;100087.00;;;;13068276;22;20433;-73
2022/09/14 04:26:34;;;;;;;15.67;9.67;;;;;15.40;100074.00;;;;13115010;22;20170;-73
2022/09/14 04:31:35;;;;;;;15.40;10.38;;;;;15.40;100079.00;;;;13141027;22;20174;-73
2022/09/14 04:36:36;;;;;;;15.37;10.20;;;;;15.30;100075.00;;;;13142315;22;20158;-74
2022/09/14 04:41:38;;;;;;;20.63;9.80;;;;;15.20;100068.00;;;;13113615;22;20870;-73
2022/09/14 04:46:41;;;;;;;17.33;10.38;;;;;15.20;100069.00;;;;13139248;22;20166;-73
2022/09/14 04:51:47;;;;;;;17.17;10.53;;;;;15.20;100070.00;;;;13128120;22;20279;-73
2022/09/14 04:56:49;;;;;;;13.27;10.33;;;;;15.20;100060.00;;;;13080256;22;20707;-73
2022/09/14 05:01:50;;;;;;;20.60;11.20;;;;;15.10;100049.00;;;;13106391;22;20163;-73
2022/09/14 05:06:51;;;;;;;19.50;11.93;;;;;15.10;100048.00;;;;13152448;22;20189;-73
2022/09/14 05:11:52;;;;;;;15.40;11.90;;;;;15.00;100042.00;;;;13052281;22;20304;-73
2022/09/14 05:16:55;;;;;;;15.97;12.33;;;;;15.00;100036.00;;;;13131909;22;20278;-73
2022/09/14 05:21:56;;;;;;;24.17;13.83;;;;;15.00;100025.00;;;;13074731;22;20452;-73
2022/09/14 05:26:57;;;;;;;19.10;14.73;;;;;14.90;100029.00;;;;13088401;22;20163;-73
2022/09/14 05:32:03;;;;;;;16.63;14.60;;;;;14.90;100013.00;;;;13138401;22;20159;-73
2022/09/14 05:37:04;;;;;;;20.30;16.03;;;;;14.90;100014.00;;;;13113119;22;20192;-74
2022/09/14 05:42:05;;;;;;;18.60;15.63;;;;;14.90;100011.00;;;;13117884;22;20174;-74
2022/09/14 05:47:06;;;;;;;21.73;17.30;;;;;15.00;99998.00;;;;13144914;22;20158;-74
2022/09/14 05:52:07;;;;;;;19.93;17.07;;;;;15.00;99997.00;;;;13078516;22;20182;-74
2022/09/14 05:57:09;;;;;;;19.53;16.60;;;;;15.00;100007.00;;;;13131135;22;20684;-73
2022/09/14 06:08:16;;;;;;;21.40;16.37;;;;;15.10;100014.00;;;;13000618;22;20226;-71
2022/09/14 06:13:17;;;;;;;18.97;16.47;;;;;15.10;100020.00;;;;13011339;22;20290;-70
2022/09/14 06:18:18;;;;;;;21.40;17.00;;;;;15.20;100024.00;;;;13038278;22;20187;-71
2022/09/14 06:23:19;;;;;;;23.87;18.37;;;;;15.10;100018.00;;;;13087148;22;20164;-72
2022/09/14 06:28:22;;;;;;;24.63;18.53;;;;;15.20;100011.00;;;;13050830;22;20172;-71
2022/09/14 06:33:27;;;;;;;22.67;18.37;;;;;15.20;100017.00;;;;13012390;22;20259;-72
2022/09/14 06:38:29;;;;;;;28.40;20.93;;;;;15.20;100015.00;;;;12989314;22;20195;-71
2022/09/14 06:43:32;;;;;;;25.47;20.10;;;;;15.20;100000.00;;;;13062199;22;20159;-71
2022/09/14 06:48:36;;;;;;;28.57;21.03;;;;;15.30;100017.00;;;;13041008;22;20172;-71
2022/09/14 06:53:38;;;;;;;27.40;20.30;;;;;15.30;100011.00;;;;13039410;22;20188;-71
2022/09/14 06:58:40;;;;;;;31.63;19.67;;;;;15.30;100021.00;;;;13065920;22;20191;-70
2022/09/14 07:03:42;;;;;;;27.90;20.13;;;;;15.30;100028.00;;;;13031001;22;20225;-71
2022/09/14 07:08:44;;;;;;;26.47;19.93;;;;;15.30;100017.00;;;;13014623;22;20242;-71
2022/09/14 07:13:46;;;;;;;28.93;19.73;;;;;15.30;100018.00;;;;13085621;22;20156;-70
2022/09/14 07:18:52;;;;;;;25.47;19.27;;;;;15.30;100023.00;;;;13014762;22;20204;-70
2022/09/14 07:23:54;;;;;;;23.27;18.60;;;;;15.30;100031.00;;;;13014871;22;20190;-71
2022/09/14 07:29:01;;;;;;;24.73;18.63;;;;;15.20;100033.00;;;;13067416;22;20168;-70
2022/09/14 07:34:03;;;;;;;27.27;19.83;;;;;15.20;100040.00;;;;13059804;22;20285;-71
2022/09/14 07:39:07;;;;;;;25.17;19.60;;;;;15.20;100044.00;;;;13083383;22;20824;-70
2022/09/14 07:44:11;;;;;;;24.70;19.20;;;;;15.20;100049.00;;;;13041601;22;20168;-70
2022/09/14 07:49:14;;;;;;;28.37;20.93;;;;;15.20;100043.00;;;;13085190;22;20168;-71
2022/09/14 07:54:17;;;;;;;30.20;20.23;;;;;15.30;100029.00;;;;13087385;22;20160;-71
2022/09/14 07:59:18;;;;;;;27.00;21.67;;;;;15.50;100007.00;;;;13062840;22;20195;-70
2022/09/14 08:04:38;;;;;;;24.63;18.83;;;;;15.60;100007.00;;;;13042360;22;20174;-70
2022/09/14 08:09:39;;;;;;;23.47;18.23;;;;;15.60;99999.00;;;;13054249;22;20198;-70
2022/09/14 08:14:40;;;;;;;22.70;18.53;;;;;15.70;100012.00;;;;13036952;22;20224;-70
2022/09/14 08:19:42;;;;;;;21.33;16.00;;;;;15.60;99996.00;;;;13084417;22;20187;-71
2022/09/14 08:24:43;;;;;;;18.37;16.23;;;;;15.60;99991.00;;;;13064072;22;20513;-70
2022/09/14 08:29:44;;;;;;;20.27;16.43;;;;;15.60;99973.00;;;;13063595;22;20640;-71
2022/09/14 08:34:45;;;;;;;19.23;15.70;;;;;15.70;99973.00;;;;13059810;22;20186;-71
2022/09/14 08:39:47;;;;;;;17.53;15.63;;;;;15.80;99975.00;;;;13038529;22;20248;-71
2022/09/14 08:44:56;;;;;;;21.75;15.43;;;;;16.00;99971.00;;;;13036600;22;20176;-71
2022/09/14 08:50:18;;;;;;;18.67;14.73;;;;;16.00;99993.00;;;;13036087;22;20164;-70
2022/09/14 08:55:40;;;;;;;16.38;14.05;;;;;15.90;100000.00;;;;13082538;22;20242;-71
2022/09/14 09:00:45;;;;;;;14.35;12.38;;;;;15.90;100006.00;;;;13034360;22;20270;-71
2022/09/14 09:05:57;;;;;;;14.68;12.75;;;;;16.10;100016.00;;;;13109268;22;20174;-71
2022/09/14 09:11:00;;;;;;;12.65;11.35;;;;;16.00;100025.00;;;;13065723;22;20646;-70
2022/09/14 09:16:05;;;;;;;13.68;12.27;;;;;16.00;100022.00;;;;13109068;22;20209;-70
2022/09/14 09:21:12;;;;;;;14.82;13.07;;;;;16.00;100028.00;;;;13113926;22;20240;-70
2022/09/14 09:26:28;;;;;;;16.92;14.07;;;;;16.10;100037.00;;;;13013182;22;20171;-70
2022/09/14 09:31:43;;;;;;;16.33;14.53;;;;;16.10;100038.00;;;;13040133;22;20178;-70
2022/09/14 09:37:16;;;;;;;18.70;15.18;;;;;15.90;100042.00;;;;13021785;22;20183;-70
2022/09/14 09:42:26;;;;;;;19.50;16.17;;;;;15.80;100030.00;;;;13063607;22;20253;-71
2022/09/14 09:47:32;;;;;;;20.30;18.10;;;;;15.60;100032.00;;;;13038334;22;20264;-71
2022/09/14 09:52:34;;;;;;;21.50;19.20;;;;;15.60;100044.00;;;;13083985;22;20174;-70
2022/09/14 09:57:36;;;;;;;22.17;19.30;;;;;15.50;100040.00;;;;13083041;22;20187;-70
2022/09/14 10:02:37;;;;;;;20.42;18.35;;;;;15.60;100032.00;;;;13038039;22;20168;-71
2022/09/14 10:07:49;;;;;;;24.42;20.45;;;;;15.80;100024.00;;;;13114442;22;20821;-70
2022/09/14 10:12:53;;;;;;;23.10;19.83;;;;;15.90;100013.00;;;;13038114;22;20195;-71
2022/09/14 10:18:10;;;;;;;25.25;20.05;;;;;15.90;100010.00;;;;13084939;22;20191;-71
2022/09/14 10:23:17;;;;;;;26.73;20.92;;;;;15.90;100013.00;;;;13037118;22;20631;-71
2022/09/14 10:28:21;;;;;;;22.42;20.02;;;;;15.90;100020.00;;;;13036804;22;20168;-70
2022/09/14 10:33:23;;;;;;;24.65;20.38;;;;;15.90;100009.00;;;;13011351;22;20653;-70
2022/09/14 10:38:42;;;;;;;27.83;22.23;;;;;16.00;100003.00;;;;13054351;22;20191;-70
2022/09/14 10:44:25;;;;;;;22.70;19.05;;;;;16.10;100009.00;;;;13114220;22;20156;-71
2022/09/14 10:49:36;;;;;;;21.27;19.00;;;;;16.20;100009.00;;;;13002339;22;20270;-71
2022/09/14 10:54:46;;;;;;;19.60;17.58;;;;;16.30;100011.00;;;;13063708;22;20206;-70
2022/09/14 11:00:04;;;;;;;21.98;19.67;;;;;16.50;99982.00;;;;13063791;22;20195;-71
2022/09/14 11:05:14;;;;;;;23.23;20.35;;;;;16.60;99993.00;;;;13038612;22;20167;-71
2022/09/14 11:10:45;;;;;;;23.08;19.52;;;;;16.60;99998.00;;;;13085243;22;20275;-70
2022/09/14 11:16:02;;;;;;;23.48;18.92;;;;;16.70;99993.00;;;;13112177;22;20193;-71
2022/09/14 11:21:30;;;;;;;23.17;20.67;;;;;16.90;99976.00;;;;13014762;22;20202;-71
2022/09/14 11:26:40;;;;;;;23.52;20.17;;;;;17.20;99993.00;;;;13040805;22;20183;-71
2022/09/14 11:32:06;;;;;;;27.17;20.80;;;;;16.80;100009.00;;;;13085156;22;20506;-70
2022/09/14 11:37:54;;;;;;;22.17;19.65;;;;;16.50;100026.00;;;;13038444;22;20179;-71
2022/09/14 11:43:10;;;;;;;25.13;21.85;;;;;16.40;100023.00;;;;13034980;22;20175;-70
2022/09/14 11:48:18;;;;;;;26.35;20.90;;;;;16.30;100028.00;;;;13023908;22;20278;-71
2022/09/14 11:53:42;;;;;;;24.52;21.70;;;;;16.30;100016.00;;;;13090890;22;20187;-71
2022/09/14 11:58:45;;;;;;;21.67;19.38;;;;;16.30;100015.00;;;;13084972;22;20191;-71
2022/09/14 12:03:55;;;;;;;21.93;19.63;;;;;16.40;100017.00;;;;13059470;22;20159;-71
2022/09/14 12:09:23;;;;;;;20.95;18.70;;;;;16.50;100010.00;;;;13059275;22;20180;-71
2022/09/14 12:14:28;;;;;;;19.92;17.92;;;;;16.50;100005.00;;;;13011548;22;20167;-70
2022/09/14 12:19:30;;;;;;;18.83;16.92;;;;;16.50;100015.00;;;;13057708;22;20218;-70
2022/09/14 12:24:32;;;;;;;22.17;17.13;;;;;16.60;99984.00;;;;13013634;22;20172;-70
2022/09/14 12:29:33;;;;;;;19.42;17.13;;;;;17.00;99986.00;;;;13111626;22;20181;-71
2022/09/14 12:34:34;;;;;;;19.70;17.70;;;;;16.90;99988.00;;;;13086182;22;20191;-71
2022/09/14 12:39:35;;;;;;;18.00;16.23;;;;;16.60;99993.00;;;;13085890;22;20213;-70
2022/09/14 12:44:41;;;;;;;19.80;16.60;;;;;16.50;99993.00;;;;13055279;22;20183;-71
2022/09/14 12:49:43;;;;;;;16.73;15.02;;;;;16.70;99992.00;;;;13077446;22;20202;-71
2022/09/14 12:55:01;;;;;;;17.45;15.75;;;;;16.90;99986.00;;;;13063226;22;20181;-70
2022/09/14 13:00:15;;;;;;;16.05;14.45;;;;;16.90;99977.00;;;;13063423;22;20604;-71
2022/09/14 13:05:25;;;;;;;18.27;15.13;;;;;16.70;99974.00;;;;13087201;22;20162;-71
2022/09/14 13:10:34;;;;;;;13.40;12.00;;;;;16.40;99986.00;;;;13059458;22;20733;-71
2022/09/14 13:15:47;;;;;;;11.70;9.50;;;;;16.30;99985.00;;;;13012234;22;20182;-71
2022/09/14 13:20:56;;;;;;;10.70;9.80;;;;;16.30;99961.00;;;;13039101;22;20274;-72
2022/09/14 13:25:59;;;;;;;11.30;10.00;;;;;16.30;99958.00;;;;13085986;22;20661;-71
2022/09/14 13:31:01;;;;;;;11.13;10.13;;;;;16.30;99960.00;;;;13086699;22;20807;-72
2022/09/14 13:36:03;;;;;;;11.30;10.25;;;;;16.40;99957.00;;;;13084710;22;20163;-71
2022/09/14 13:41:11;;;;;;;10.80;9.82;;;;;16.40;99963.00;;;;13059866;22;20183;-71
2022/09/14 13:46:13;;;;;;;12.07;10.68;;;;;16.40;99965.00;;;;13059933;22;20166;-71
2022/09/14 13:51:24;;;;;;;13.85;11.98;;;;;16.40;99956.00;;;;13083708;22;20214;-71
2022/09/14 13:56:31;;;;;;;12.52;11.23;;;;;16.50;99957.00;;;;13013539;22;20263;-71
2022/09/14 14:01:45;;;;;;;11.88;10.68;;;;;16.30;99950.00;;;;13012770;22;20195;-71
2022/09/14 14:06:59;;;;;;;12.55;11.43;;;;;16.20;99949.00;;;;13060053;22;20183;-71
2022/09/14 14:12:00;;;;;;;13.43;12.13;;;;;16.30;99937.00;;;;13075270;22;20175;-71
2022/09/14 14:17:20;;;;;;;12.43;10.65;;;;;16.40;99915.00;;;;13059635;22;20194;-71
2022/09/14 14:22:32;;;;;;;8.30;7.50;;;;;16.40;99923.00;;;;13085269;22;20167;-71
2022/09/14 14:27:41;;;;;;;9.27;8.38;;;;;16.30;99927.00;;;;13112624;22;20171;-71
2022/09/14 14:32:47;;;;;;;9.55;8.40;;;;;16.20;99927.00;;;;13038865;22;20168;-71
2022/09/14 14:37:49;;;;;;;10.57;9.52;;;;;16.20;99930.00;;;;13038222;22;20187;-71
2022/09/14 14:42:51;;;;;;;11.63;9.23;;;;;16.00;99930.00;;;;13038288;22;20179;-71
2022/09/14 14:47:54;;;;;;;11.15;10.05;;;;;15.90;99927.00;;;;13015478;22;20167;-71
2022/09/14 14:52:57;;;;;;;10.30;9.07;;;;;15.90;99935.00;;;;13060665;22;20164;-71
2022/09/14 14:58:00;;;;;;;9.85;9.05;;;;;15.90;99933.00;;;;13039324;22;20187;-71
2022/09/14 15:03:02;;;;;;;8.88;8.05;;;;;15.90;99936.00;;;;13051370;22;20232;-71
2022/09/14 15:08:03;;;;;;;8.30;7.65;;;;;15.80;99939.00;;;;13079217;22;20186;-71
2022/09/14 15:13:10;;;;;;;9.02;7.97;;;;;15.70;99953.00;;;;12998695;22;20179;-71
2022/09/14 15:18:12;;;;;;;8.38;7.57;;;;;15.90;99948.00;;;;13031491;22;20286;-71
2022/09/14 15:23:13;;;;;;;10.37;8.87;;;;;16.00;99952.00;;;;13059983;22;20163;-71
2022/09/14 15:28:14;;;;;;;11.73;10.32;;;;;16.00;99958.00;;;;13085856;22;20171;-71
2022/09/14 15:33:15;;;;;;;11.38;10.25;;;;;15.90;99961.00;;;;13087857;22;20609;-71
2022/09/14 15:38:16;;;;;;;12.68;10.68;;;;;15.80;99966.00;;;;13040338;22;20210;-72
2022/09/14 15:43:17;;;;;;;12.40;11.17;;;;;15.70;99971.00;;;;13040314;22;20178;-71
2022/09/14 15:48:18;;;;;;;13.82;12.35;;;;;15.60;99957.00;;;;13037617;22;20309;-71
2022/09/14 15:53:20;;;;;;;15.73;14.25;;;;;15.50;99969.00;;;;13060871;22;20175;-71
2022/09/14 15:58:21;;;;;;;16.67;15.07;;;;;15.40;99965.00;;;;13037235;22;20198;-71
2022/09/14 16:03:22;;;;;;;14.43;12.97;;;;;15.30;99968.00;;;;13059307;22;20162;-71
2022/09/14 16:08:23;;;;;;;14.43;12.97;;;;;15.30;99972.00;;;;13086652;22;20183;-71
2022/09/14 16:13:25;;;;;;;17.00;15.07;;;;;15.20;99969.00;;;;13084723;22;20163;-71
2022/09/14 16:18:27;;;;;;;16.37;13.90;;;;;15.10;99985.00;;;;13075658;22;20233;-71
2022/09/14 16:23:28;;;;;;;13.87;12.37;;;;;15.10;99991.00;;;;13030586;22;20187;-71
2022/09/14 16:28:29;;;;;;;13.20;11.33;;;;;15.10;99998.00;;;;13083369;22;20250;-71
2022/09/14 16:33:35;;;;;;;10.73;9.63;;;;;15.10;100001.00;;;;13037952;22;20179;-71
2022/09/14 16:38:37;;;;;;;10.63;9.50;;;;;15.00;100001.00;;;;13058898;22;20217;-71
2022/09/14 16:43:38;;;;;;;12.67;8.10;;;;;15.00;99999.00;;;;13039012;22;20172;-71
2022/09/14 16:48:42;;;;;;;7.77;6.60;;;;;14.90;100005.00;;;;13036473;22;20167;-71
2022/09/14 16:53:45;;;;;;;8.30;7.33;;;;;14.80;100010.00;;;;13085698;22;20190;-72
2022/09/14 16:58:47;;;;;;;8.90;6.90;;;;;14.70;100007.00;;;;13037709;22;20921;-72
2022/09/14 17:03:52;;;;;;;8.00;7.30;;;;;14.60;99995.00;;;;13111019;22;20167;-72
2022/09/14 17:08:59;;;;;;;11.40;8.00;;;;;14.50;100004.00;;;;13062432;22;20183;-72
2022/09/14 17:14:00;;;;;;;12.63;9.23;;;;;14.50;100003.00;;;;13059599;22;20167;-72
2022/09/14 17:19:03;;;;;;;12.40;9.43;;;;;14.50;100011.00;;;;13087585;22;20487;-72
2022/09/14 17:24:06;;;;;;;15.43;10.67;;;;;14.40;100014.00;;;;13056118;22;20179;-71
2022/09/14 17:29:08;;;;;;;13.50;10.20;;;;;14.40;100005.00;;;;13033115;22;20240;-72
2022/09/14 17:34:12;;;;;;;13.00;10.80;;;;;14.40;100005.00;;;;13039156;22;20168;-71
2022/09/14 17:39:14;;;;;;;14.67;11.40;;;;;14.40;100014.00;;;;13060250;22;20718;-72
2022/09/14 17:44:15;;;;;;;14.43;10.70;;;;;14.30;100020.00;;;;13037550;22;20254;-71
2022/09/14 17:49:17;;;;;;;14.83;11.93;;;;;14.30;100030.00;;;;13061954;22;20163;-71
2022/09/14 17:54:18;;;;;;;17.20;12.73;;;;;14.30;100038.00;;;;13039557;22;20164;-71
2022/09/14 17:59:19;;;;;;;14.70;11.47;;;;;14.40;100033.00;;;;13039495;22;20215;-71
2022/09/14 18:04:21;;;;;;;16.17;11.47;;;;;14.40;100033.00;;;;13084978;22;20204;-72
2022/09/14 18:09:23;;;;;;;16.27;12.50;;;;;14.40;100040.00;;;;13044992;22;20187;-71
2022/09/14 18:14:25;;;;;;;15.57;12.03;;;;;14.30;100041.00;;;;13064878;22;20174;-72
2022/09/14 18:19:26;;;;;;;18.57;12.17;;;;;14.30;100043.00;;;;13041573;22;20211;-72
2022/09/14 18:24:28;;;;;;;18.37;13.10;;;;;14.30;100048.00;;;;13041326;22;20246;-72
2022/09/14 18:29:30;;;;;;;20.90;15.13;;;;;14.20;100055.00;;;;13089541;22;20217;-71
2022/09/14 18:34:31;;;;;;;19.93;14.77;;;;;14.20;100063.00;;;;13060561;22;20164;-72
2022/09/14 18:39:32;;;;;;;22.33;14.57;;;;;14.20;100058.00;;;;13066072;22;20634;-71
2022/09/14 18:44:33;;;;;;;21.57;14.03;;;;;14.20;100057.00;;;;13011499;22;20202;-71
2022/09/14 18:49:35;;;;;;;16.20;13.27;;;;;14.20;100059.00;;;;13060127;22;20159;-71
2022/09/14 18:54:36;;;;;;;21.03;13.70;;;;;14.20;100066.00;;;;13061911;22;20887;-71
2022/09/14 18:59:37;;;;;;;20.57;14.33;;;;;14.30;100061.00;;;;13087933;22;20191;-71
2022/09/14 19:04:38;;;;;;;18.23;13.27;;;;;14.30;100063.00;;;;13013535;22;20250;-71
2022/09/14 19:09:39;;;;;;;19.90;12.83;;;;;14.20;100057.00;;;;13039338;22;20187;-71
2022/09/14 19:14:40;;;;;;;22.50;12.60;;;;;14.30;100070.00;;;;13079527;22;20476;-71
2022/09/14 19:19:42;;;;;;;21.03;13.00;;;;;14.30;100083.00;;;;13016471;22;20191;-72
2022/09/14 19:24:43;;;;;;;18.33;13.83;;;;;14.30;100076.00;;;;13087490;22;20171;-72
2022/09/14 19:29:44;;;;;;;18.43;12.93;;;;;14.30;100083.00;;;;13063796;22;20250;-72
2022/09/14 19:34:45;;;;;;;18.93;13.23;;;;;14.30;100079.00;;;;13040751;22;20167;-72
2022/09/14 19:39:47;;;;;;;19.90;13.60;;;;;14.30;100085.00;;;;13086088;22;20244;-72
2022/09/14 19:44:48;;;;;;;20.00;14.37;;;;;14.20;100098.00;;;;13111938;22;20156;-72
2022/09/14 19:49:49;;;;;;;20.67;13.43;;;;;14.30;100105.00;;;;13084595;22;20251;-71
2022/09/14 19:54:50;;;;;;;23.03;15.00;;;;;14.30;100108.00;;;;13054753;22;20215;-71
2022/09/14 19:59:52;;;;;;;27.67;15.00;;;;;14.20;100122.00;;;;13082037;22;20184;-72
2022/09/14 20:04:53;;;;;;;23.70;15.37;;;;;14.20;100130.00;;;;13009117;22;20168;-72
2022/09/14 20:09:54;;;;;;;23.97;15.60;;;;;14.20;100136.00;;;;13081403;22;20206;-72
2022/09/14 20:14:55;;;;;;;23.37;15.30;;;;;14.10;100135.00;;;;13024959;22;20183;-71
2022/09/14 20:19:56;;;;;;;24.73;15.27;;;;;14.10;100142.00;;;;13075963;22;20190;-71
2022/09/14 20:24:57;;;;;;;23.73;15.77;;;;;14.10;100151.00;;;;13034082;22;20210;-72
2022/09/14 20:29:58;;;;;;;27.37;16.17;;;;;14.10;100152.00;;;;13009911;22;20175;-72
2022/09/14 20:34:59;;;;;;;25.27;16.23;;;;;14.00;100139.00;;;;13056760;22;20170;-71
2022/09/14 20:40:01;;;;;;;28.57;18.03;;;;;13.90;100152.00;;;;13008736;22;20294;-71
2022/09/14 20:45:02;;;;;;;33.40;19.47;;;;;13.80;100155.00;;;;13080630;22;20258;-71
2022/09/14 20:50:04;;;;;;;33.87;19.30;;;;;13.70;100155.00;;;;13030689;22;20160;-72
2022/09/14 20:55:06;;;;;;;42.37;22.17;;;;;13.60;100167.00;;;;13081553;22;20266;-72
2022/09/14 21:00:08;;;;;;;39.00;21.03;;;;;13.60;100156.00;;;;13085850;22;20206;-71
2022/09/14 21:05:09;;;;;;;36.13;20.10;;;;;13.50;100168.00;;;;13086869;22;20645;-71
2022/09/14 21:10:11;;;;;;;37.80;22.03;;;;;13.40;100171.00;;;;13058395;22;20191;-71
2022/09/14 21:15:12;;;;;;;44.03;23.73;;;;;13.30;100173.00;;;;13065566;22;20175;-71
2022/09/14 21:20:13;;;;;;;37.83;21.80;;;;;13.30;100176.00;;;;13056403;22;20640;-71
2022/09/14 21:25:15;;;;;;;37.83;22.17;;;;;13.20;100176.00;;;;13081046;22;20175;-73
2022/09/14 21:30:16;;;;;;;41.03;23.77;;;;;13.10;100178.00;;;;13087051;22;20163;-71
2022/09/14 21:35:18;;;;;;;38.17;21.27;;;;;13.00;100180.00;;;;13087044;22;20204;-71
2022/09/14 21:40:20;;;;;;;38.67;20.77;;;;;12.80;100186.00;;;;13038081;22;20187;-71
2022/09/14 21:45:21;;;;;;;36.43;22.37;;;;;12.70;100190.00;;;;13040081;22;20312;-71
2022/09/14 21:50:22;;;;;;;44.03;22.60;;;;;12.60;100192.00;;;;13013301;22;20171;-73
2022/09/14 21:55:23;;;;;;;40.17;21.43;;;;;12.60;100187.00;;;;13086268;22;20167;-71
2022/09/14 22:00:25;;;;;;;38.50;21.43;;;;;12.50;100196.00;;;;13086776;22;20190;-71
2022/09/14 22:05:31;;;;;;;39.87;20.33;;;;;12.40;100209.00;;;;13037154;22;20167;-71
2022/09/14 22:10:34;;;;;;;41.63;22.63;;;;;12.30;100208.00;;;;13038627;22;20187;-72
2022/09/14 22:15:35;;;;;;;41.37;23.10;;;;;12.30;100203.00;;;;13038932;22;20301;-72
2022/09/14 22:20:36;;;;;;;42.63;22.50;;;;;12.30;100203.00;;;;13086439;22;20236;-71
2022/09/14 22:25:38;;;;;;;46.00;22.23;;;;;12.20;100214.00;;;;13065121;22;20173;-71
2022/09/14 22:30:50;;;;;;;49.47;24.73;;;;;12.20;100208.00;;;;13038787;22;20174;-72
2022/09/14 22:35:54;;;;;;;46.97;23.20;;;;;12.10;100211.00;;;;13085051;22;20163;-71
2022/09/14 22:40:59;;;;;;;43.23;23.73;;;;;12.10;100218.00;;;;13037818;22;20199;-71
2022/09/14 22:46:01;;;;;;;46.67;24.33;;;;;12.00;100222.00;;;;12988119;22;20172;-72
2022/09/14 22:51:04;;;;;;;54.67;26.17;;;;;12.00;100227.00;;;;13038260;22;20168;-71
2022/09/14 22:56:15;;;;;;;44.53;23.57;;;;;12.00;100231.00;;;;13059791;22;20182;-71
2022/09/14 23:01:24;;;;;;;44.53;22.50;;;;;11.90;100240.00;;;;13086061;22;20217;-71
2022/09/14 23:06:30;;;;;;;49.73;23.10;;;;;11.80;100229.00;;;;13040350;22;20176;-71
2022/09/14 23:11:32;;;;;;;43.00;22.40;;;;;11.80;100233.00;;;;13089014;22;20213;-72
2022/09/14 23:16:33;;;;;;;49.67;24.57;;;;;11.80;100237.00;;;;13063241;22;20186;-71
2022/09/14 23:21:34;;;;;;;54.60;27.13;;;;;11.90;100245.00;;;;13066921;22;20250;-71
2022/09/14 23:26:35;;;;;;;55.77;27.23;;;;;12.10;100240.00;;;;13089721;22;20162;-71
2022/09/14 23:31:37;;;;;;;63.00;28.20;;;;;12.20;100249.00;;;;13042188;22;20254;-72
2022/09/14 23:36:38;;;;;;;57.93;28.47;;;;;12.30;100251.00;;;;13040441;22;20179;-71
2022/09/14 23:41:39;;;;;;;63.97;30.77;;;;;12.40;100243.00;;;;13066375;22;20274;-72
2022/09/14 23:46:41;;;;;;;65.37;29.87;;;;;12.40;100239.00;;;;13116307;22;20166;-72
2022/09/14 23:51:42;;;;;;;53.23;28.57;;;;;12.40;100244.00;;;;13038416;22;20225;-72
2022/09/14 23:56:44;;;;;;;62.83;29.93;;;;;12.30;100246.00;;;;13015525;22;20250;-71
